CheckWX is a tool to help pilots better visualize weather data.  It is not intended as a substitute for an official pre-flight weather briefing.

14:57:19 UTC

ZSOF TAF
Hefei Luogang International Airport
Hefei, China
TAF ZSOF 230901Z 2312/2412 36003MPS 5000 HZ NSC TX16/2407Z TN05/2322Z

Mar-23@
12:00 UTC

Mar-23 @ 12:00 UTC

Mar-24@
12:00 UTC

Mar-24 @ 12:00 UTC

TAF ZSOF 230901Z 2312/2412 36003MPS 5000 HZ NSC TX16/2407Z TN05/2322Z
Wind
  • 360° at 6 KTS
Conditions
Haze
Cloud Levels
  • No significant clouds